sensor_id;sensor_type;location;lat;lon;timestamp;pressure;altitude;pressure_sealevel;temperature;humidity
80620;BME280;69979;53.682;-2.690;2024-01-06T00:02:11;100745.59;;;10.10;47.49
80620;BME280;69979;53.682;-2.690;2024-01-06T00:04:37;100749.04;;;10.15;47.76
80620;BME280;69979;53.682;-2.690;2024-01-06T00:07:02;100749.99;;;9.70;47.87
80620;BME280;69979;53.682;-2.690;2024-01-06T00:09:27;100754.34;;;9.98;47.94
80620;BME280;69979;53.682;-2.690;2024-01-06T00:11:53;100760.75;;;9.69;48.24
80620;BME280;69979;53.682;-2.690;2024-01-06T00:14:19;100762.96;;;9.41;48.24
80620;BME280;69979;53.682;-2.690;2024-01-06T00:16:45;100765.52;;;9.98;48.01
80620;BME280;69979;53.682;-2.690;2024-01-06T00:19:10;100769.91;;;9.78;47.63
80620;BME280;69979;53.682;-2.690;2024-01-06T00:21:36;100772.02;;;9.44;47.99
80620;BME280;69979;53.682;-2.690;2024-01-06T00:24:02;100771.74;;;9.30;47.79
80620;BME280;69979;53.682;-2.690;2024-01-06T00:26:27;100771.02;;;8.10;49.22
80620;BME280;69979;53.682;-2.690;2024-01-06T00:28:52;100774.98;;;8.90;49.11
80620;BME280;69979;53.682;-2.690;2024-01-06T00:31:18;100780.09;;;9.73;47.70
80620;BME280;69979;53.682;-2.690;2024-01-06T00:33:44;100779.91;;;9.01;47.89
80620;BME280;69979;53.682;-2.690;2024-01-06T00:36:09;100787.80;;;9.42;47.43
80620;BME280;69979;53.682;-2.690;2024-01-06T00:38:35;100788.36;;;9.53;47.31
80620;BME280;69979;53.682;-2.690;2024-01-06T00:41:00;100788.73;;;9.09;47.72
80620;BME280;69979;53.682;-2.690;2024-01-06T00:43:26;100789.72;;;8.76;48.14
80620;BME280;69979;53.682;-2.690;2024-01-06T00:45:52;100790.46;;;9.51;47.17
80620;BME280;69979;53.682;-2.690;2024-01-06T00:48:17;100797.33;;;9.14;46.95
80620;BME280;69979;53.682;-2.690;2024-01-06T00:50:43;100799.71;;;8.91;47.37
80620;BME280;69979;53.682;-2.690;2024-01-06T00:53:08;100802.66;;;9.13;47.56
80620;BME280;69979;53.682;-2.690;2024-01-06T00:55:34;100807.04;;;8.88;47.76
80620;BME280;69979;53.682;-2.690;2024-01-06T00:57:59;100811.90;;;8.71;48.10
80620;BME280;69979;53.682;-2.690;2024-01-06T01:00:25;100815.48;;;8.32;47.82
80620;BME280;69979;53.682;-2.690;2024-01-06T01:02:50;100816.63;;;8.53;47.97
80620;BME280;69979;53.682;-2.690;2024-01-06T01:05:16;100815.37;;;8.81;47.37
80620;BME280;69979;53.682;-2.690;2024-01-06T01:07:41;100812.76;;;8.83;47.34
80620;BME280;69979;53.682;-2.690;2024-01-06T01:10:07;100817.72;;;7.38;48.19
80620;BME280;69979;53.682;-2.690;2024-01-06T01:12:31;100824.52;;;7.93;48.58
80620;BME280;69979;53.682;-2.690;2024-01-06T01:14:57;100820.49;;;8.44;48.10
80620;BME280;69979;53.682;-2.690;2024-01-06T01:17:23;100823.17;;;8.15;48.00
80620;BME280;69979;53.682;-2.690;2024-01-06T01:19:48;100825.12;;;8.25;47.86
80620;BME280;69979;53.682;-2.690;2024-01-06T01:22:14;100826.92;;;8.09;47.78
80620;BME280;69979;53.682;-2.690;2024-01-06T01:24:40;100830.68;;;8.21;47.94
80620;BME280;69979;53.682;-2.690;2024-01-06T01:27:05;100830.87;;;8.52;47.58
80620;BME280;69979;53.682;-2.690;2024-01-06T01:29:31;100833.88;;;8.65;47.53
80620;BME280;69979;53.682;-2.690;2024-01-06T01:31:56;100840.80;;;8.67;47.64
80620;BME280;69979;53.682;-2.690;2024-01-06T01:34:22;100842.83;;;8.66;46.88
80620;BME280;69979;53.682;-2.690;2024-01-06T01:36:47;100843.72;;;8.49;47.13
80620;BME280;69979;53.682;-2.690;2024-01-06T01:39:13;100845.49;;;8.13;47.27
80620;BME280;69979;53.682;-2.690;2024-01-06T01:41:39;100850.82;;;8.53;47.09
80620;BME280;69979;53.682;-2.690;2024-01-06T01:44:04;100849.28;;;8.39;47.26
80620;BME280;69979;53.682;-2.690;2024-01-06T01:46:30;100846.98;;;8.23;47.45
80620;BME280;69979;53.682;-2.690;2024-01-06T01:48:56;100854.84;;;8.05;46.95
80620;BME280;69979;53.682;-2.690;2024-01-06T01:51:21;100855.45;;;8.22;47.55
80620;BME280;69979;53.682;-2.690;2024-01-06T01:53:46;100861.05;;;8.06;47.38
80620;BME280;69979;53.682;-2.690;2024-01-06T01:56:11;100859.84;;;7.91;47.49
80620;BME280;69979;53.682;-2.690;2024-01-06T01:58:36;100860.66;;;8.15;47.20
80620;BME280;69979;53.682;-2.690;2024-01-06T02:01:02;100863.32;;;8.51;47.06
80620;BME280;69979;53.682;-2.690;2024-01-06T02:03:29;100868.92;;;8.38;47.29
80620;BME280;69979;53.682;-2.690;2024-01-06T02:05:53;100867.20;;;8.28;47.23
80620;BME280;69979;53.682;-2.690;2024-01-06T02:08:18;100871.77;;;8.25;47.46
80620;BME280;69979;53.682;-2.690;2024-01-06T02:10:43;100876.34;;;8.14;47.56
80620;BME280;69979;53.682;-2.690;2024-01-06T02:13:10;100882.37;;;8.17;47.21
80620;BME280;69979;53.682;-2.690;2024-01-06T02:15:34;100887.16;;;8.31;47.34
80620;BME280;69979;53.682;-2.690;2024-01-06T02:17:59;100886.05;;;8.31;46.74
80620;BME280;69979;53.682;-2.690;2024-01-06T02:20:25;100891.62;;;7.83;47.01
80620;BME280;69979;53.682;-2.690;2024-01-06T02:22:50;100897.68;;;8.23;47.21
80620;BME280;69979;53.682;-2.690;2024-01-06T02:25:16;100900.18;;;8.01;47.25
80620;BME280;69979;53.682;-2.690;2024-01-06T02:27:42;100906.22;;;8.03;46.66
80620;BME280;69979;53.682;-2.690;2024-01-06T02:30:08;100912.42;;;7.92;46.61
80620;BME280;69979;53.682;-2.690;2024-01-06T02:32:33;100914.85;;;8.37;46.19
80620;BME280;69979;53.682;-2.690;2024-01-06T02:34:58;100917.04;;;8.03;46.39
80620;BME280;69979;53.682;-2.690;2024-01-06T02:37:24;100921.86;;;7.82;46.42
80620;BME280;69979;53.682;-2.690;2024-01-06T02:39:50;100923.22;;;7.65;46.68
80620;BME280;69979;53.682;-2.690;2024-01-06T02:42:16;100925.96;;;8.25;46.44
80620;BME280;69979;53.682;-2.690;2024-01-06T02:44:41;100923.24;;;7.75;46.54
80620;BME280;69979;53.682;-2.690;2024-01-06T02:47:06;100923.70;;;8.01;46.65
80620;BME280;69979;53.682;-2.690;2024-01-06T02:49:32;100925.15;;;7.76;45.65
80620;BME280;69979;53.682;-2.690;2024-01-06T02:51:58;100927.84;;;7.73;45.66
80620;BME280;69979;53.682;-2.690;2024-01-06T02:54:23;100931.04;;;7.67;45.71
80620;BME280;69979;53.682;-2.690;2024-01-06T02:56:49;100935.88;;;7.56;46.19
80620;BME280;69979;53.682;-2.690;2024-01-06T02:59:14;100939.09;;;7.37;46.07
80620;BME280;69979;53.682;-2.690;2024-01-06T03:01:40;100940.37;;;7.38;46.43
80620;BME280;69979;53.682;-2.690;2024-01-06T03:04:06;100940.02;;;7.56;46.58
80620;BME280;69979;53.682;-2.690;2024-01-06T03:06:32;100939.24;;;7.73;46.93
80620;BME280;69979;53.682;-2.690;2024-01-06T03:08:57;100941.74;;;7.56;46.86
80620;BME280;69979;53.682;-2.690;2024-01-06T03:11:23;100946.76;;;7.75;46.42
80620;BME280;69979;53.682;-2.690;2024-01-06T03:13:48;100948.28;;;7.45;46.56
80620;BME280;69979;53.682;-2.690;2024-01-06T03:16:14;100947.98;;;7.65;46.60
80620;BME280;69979;53.682;-2.690;2024-01-06T03:18:40;100953.20;;;7.70;46.35
80620;BME280;69979;53.682;-2.690;2024-01-06T03:21:15;100954.33;;;7.79;45.79
80620;BME280;69979;53.682;-2.690;2024-01-06T03:23:31;100952.65;;;7.36;45.96
80620;BME280;69979;53.682;-2.690;2024-01-06T03:25:56;100950.20;;;7.44;46.34
80620;BME280;69979;53.682;-2.690;2024-01-06T03:28:22;100956.05;;;7.10;46.22
80620;BME280;69979;53.682;-2.690;2024-01-06T03:30:48;100955.43;;;7.57;46.07
80620;BME280;69979;53.682;-2.690;2024-01-06T03:33:13;100959.85;;;7.59;46.17
80620;BME280;69979;53.682;-2.690;2024-01-06T03:35:39;100964.05;;;7.47;45.95
80620;BME280;69979;53.682;-2.690;2024-01-06T03:38:05;100966.22;;;7.45;46.23
80620;BME280;69979;53.682;-2.690;2024-01-06T03:40:30;100970.45;;;7.57;45.20
80620;BME280;69979;53.682;-2.690;2024-01-06T03:42:56;100973.40;;;7.01;45.72
80620;BME280;69979;53.682;-2.690;2024-01-06T03:45:22;100970.03;;;7.22;45.76
80620;BME280;69979;53.682;-2.690;2024-01-06T03:47:47;100968.86;;;7.13;45.57
80620;BME280;69979;53.682;-2.690;2024-01-06T03:50:13;100970.46;;;7.16;45.87
80620;BME280;69979;53.682;-2.690;2024-01-06T03:52:39;100975.02;;;7.09;45.68
80620;BME280;69979;53.682;-2.690;2024-01-06T03:55:06;100977.02;;;7.33;45.88
80620;BME280;69979;53.682;-2.690;2024-01-06T03:57:30;100977.31;;;7.18;45.98
80620;BME280;69979;53.682;-2.690;2024-01-06T03:59:57;100982.93;;;7.19;46.21
80620;BME280;69979;53.682;-2.690;2024-01-06T04:02:22;100981.88;;;7.44;46.26
80620;BME280;69979;53.682;-2.690;2024-01-06T04:04:47;100986.69;;;6.11;46.85
80620;BME280;69979;53.682;-2.690;2024-01-06T04:07:13;100989.62;;;6.56;47.05
80620;BME280;69979;53.682;-2.690;2024-01-06T04:09:42;100993.91;;;7.03;46.70
80620;BME280;69979;53.682;-2.690;2024-01-06T04:12:05;100999.22;;;6.75;46.85
80620;BME280;69979;53.682;-2.690;2024-01-06T04:14:30;100999.98;;;6.77;46.73
80620;BME280;69979;53.682;-2.690;2024-01-06T04:16:56;101002.83;;;7.25;46.02
80620;BME280;69979;53.682;-2.690;2024-01-06T04:19:21;101002.65;;;6.56;45.89
80620;BME280;69979;53.682;-2.690;2024-01-06T04:21:47;101003.87;;;7.04;46.09
80620;BME280;69979;53.682;-2.690;2024-01-06T04:24:13;101001.40;;;7.37;45.56
80620;BME280;69979;53.682;-2.690;2024-01-06T04:26:38;101001.65;;;7.33;45.14
80620;BME280;69979;53.682;-2.690;2024-01-06T04:29:04;101006.44;;;6.92;45.55
80620;BME280;69979;53.682;-2.690;2024-01-06T04:31:30;101007.16;;;7.12;45.38
80620;BME280;69979;53.682;-2.690;2024-01-06T04:33:56;101006.42;;;6.84;46.02
80620;BME280;69979;53.682;-2.690;2024-01-06T04:36:22;101007.55;;;6.73;46.61
80620;BME280;69979;53.682;-2.690;2024-01-06T04:38:47;101008.93;;;6.70;46.27
80620;BME280;69979;53.682;-2.690;2024-01-06T04:41:13;101013.29;;;6.65;46.24
80620;BME280;69979;53.682;-2.690;2024-01-06T04:43:39;101020.24;;;6.79;46.15
80620;BME280;69979;53.682;-2.690;2024-01-06T04:46:04;101020.05;;;6.81;46.11
80620;BME280;69979;53.682;-2.690;2024-01-06T04:48:30;101022.86;;;6.70;46.68
80620;BME280;69979;53.682;-2.690;2024-01-06T04:50:56;101027.01;;;6.93;46.58
80620;BME280;69979;53.682;-2.690;2024-01-06T04:53:21;101025.64;;;6.44;46.14
80620;BME280;69979;53.682;-2.690;2024-01-06T04:55:47;101028.00;;;6.72;46.26
80620;BME280;69979;53.682;-2.690;2024-01-06T04:58:13;101029.07;;;6.21;46.49
80620;BME280;69979;53.682;-2.690;2024-01-06T05:00:39;101031.14;;;6.85;45.81
80620;BME280;69979;53.682;-2.690;2024-01-06T05:03:04;101035.99;;;6.87;45.92
80620;BME280;69979;53.682;-2.690;2024-01-06T05:05:30;101040.14;;;6.89;46.21
80620;BME280;69979;53.682;-2.690;2024-01-06T05:07:56;101039.47;;;6.82;46.39
80620;BME280;69979;53.682;-2.690;2024-01-06T05:10:21;101040.12;;;6.65;46.57
80620;BME280;69979;53.682;-2.690;2024-01-06T05:12:47;101039.35;;;6.06;46.48
80620;BME280;69979;53.682;-2.690;2024-01-06T05:15:13;101043.91;;;6.95;46.30
80620;BME280;69979;53.682;-2.690;2024-01-06T05:17:39;101042.58;;;6.22;46.42
80620;BME280;69979;53.682;-2.690;2024-01-06T05:20:05;101044.06;;;6.34;46.44
80620;BME280;69979;53.682;-2.690;2024-01-06T05:22:30;101046.21;;;6.77;46.14
80620;BME280;69979;53.682;-2.690;2024-01-06T05:24:56;101044.24;;;6.80;46.01
80620;BME280;69979;53.682;-2.690;2024-01-06T05:27:22;101043.09;;;6.93;45.85
80620;BME280;69979;53.682;-2.690;2024-01-06T05:29:47;101043.82;;;6.57;45.93
80620;BME280;69979;53.682;-2.690;2024-01-06T05:32:13;101049.48;;;6.97;45.08
80620;BME280;69979;53.682;-2.690;2024-01-06T05:34:38;101054.90;;;7.22;44.88
80620;BME280;69979;53.682;-2.690;2024-01-06T05:37:04;101055.53;;;6.51;44.64
80620;BME280;69979;53.682;-2.690;2024-01-06T05:39:30;101053.59;;;6.35;45.40
80620;BME280;69979;53.682;-2.690;2024-01-06T05:41:55;101058.73;;;6.36;46.06
80620;BME280;69979;53.682;-2.690;2024-01-06T05:44:21;101061.48;;;6.47;46.09
80620;BME280;69979;53.682;-2.690;2024-01-06T05:46:47;101065.96;;;6.46;46.10
80620;BME280;69979;53.682;-2.690;2024-01-06T05:49:12;101070.85;;;6.75;45.78
80620;BME280;69979;53.682;-2.690;2024-01-06T05:51:44;101072.17;;;6.54;45.70
80620;BME280;69979;53.682;-2.690;2024-01-06T05:54:04;101076.21;;;6.42;46.18
80620;BME280;69979;53.682;-2.690;2024-01-06T05:56:29;101080.64;;;6.26;46.63
80620;BME280;69979;53.682;-2.690;2024-01-06T05:58:55;101083.77;;;6.51;45.79
80620;BME280;69979;53.682;-2.690;2024-01-06T06:01:21;101083.33;;;6.51;45.84
80620;BME280;69979;53.682;-2.690;2024-01-06T06:03:47;101086.11;;;6.35;45.98
80620;BME280;69979;53.682;-2.690;2024-01-06T06:06:12;101093.57;;;6.68;46.13
80620;BME280;69979;53.682;-2.690;2024-01-06T06:08:39;101102.78;;;6.86;45.45
80620;BME280;69979;53.682;-2.690;2024-01-06T06:11:04;101104.61;;;6.77;45.08
80620;BME280;69979;53.682;-2.690;2024-01-06T06:13:29;101103.43;;;6.04;45.93
80620;BME280;69979;53.682;-2.690;2024-01-06T06:15:55;101101.46;;;6.14;46.13
80620;BME280;69979;53.682;-2.690;2024-01-06T06:18:21;101103.29;;;6.62;45.90
80620;BME280;69979;53.682;-2.690;2024-01-06T06:20:46;101108.86;;;6.64;45.80
80620;BME280;69979;53.682;-2.690;2024-01-06T06:23:12;101109.50;;;6.21;45.62
80620;BME280;69979;53.682;-2.690;2024-01-06T06:25:40;101117.09;;;5.76;46.73
80620;BME280;69979;53.682;-2.690;2024-01-06T06:28:06;101117.03;;;6.08;46.73
80620;BME280;69979;53.682;-2.690;2024-01-06T06:30:32;101116.75;;;6.17;46.65
80620;BME280;69979;53.682;-2.690;2024-01-06T06:32:57;101114.61;;;6.03;46.54
80620;BME280;69979;53.682;-2.690;2024-01-06T06:35:23;101120.79;;;6.63;46.10
80620;BME280;69979;53.682;-2.690;2024-01-06T06:37:49;101121.05;;;6.19;46.25
80620;BME280;69979;53.682;-2.690;2024-01-06T06:40:15;101127.16;;;6.41;45.92
80620;BME280;69979;53.682;-2.690;2024-01-06T06:42:40;101132.00;;;6.72;45.75
80620;BME280;69979;53.682;-2.690;2024-01-06T06:45:07;101133.65;;;6.54;45.34
80620;BME280;69979;53.682;-2.690;2024-01-06T06:47:32;101140.14;;;6.06;45.96
80620;BME280;69979;53.682;-2.690;2024-01-06T06:49:57;101145.26;;;5.84;46.47
80620;BME280;69979;53.682;-2.690;2024-01-06T06:52:23;101145.62;;;5.22;46.92
80620;BME280;69979;53.682;-2.690;2024-01-06T06:54:49;101145.63;;;5.89;47.32
80620;BME280;69979;53.682;-2.690;2024-01-06T06:57:20;101152.38;;;6.13;47.36
80620;BME280;69979;53.682;-2.690;2024-01-06T06:59:40;101155.72;;;6.13;47.26
80620;BME280;69979;53.682;-2.690;2024-01-06T07:02:06;101158.81;;;6.12;46.74
80620;BME280;69979;53.682;-2.690;2024-01-06T07:04:32;101168.49;;;6.54;46.10
80620;BME280;69979;53.682;-2.690;2024-01-06T07:06:58;101176.27;;;6.28;45.86
80620;BME280;69979;53.682;-2.690;2024-01-06T07:09:23;101183.83;;;6.40;45.64
80620;BME280;69979;53.682;-2.690;2024-01-06T07:11:49;101187.71;;;6.07;45.77
80620;BME280;69979;53.682;-2.690;2024-01-06T07:14:15;101193.37;;;6.37;45.78
80620;BME280;69979;53.682;-2.690;2024-01-06T07:16:40;101200.65;;;6.03;45.80
80620;BME280;69979;53.682;-2.690;2024-01-06T07:19:06;101205.61;;;5.46;45.82
80620;BME280;69979;53.682;-2.690;2024-01-06T07:21:32;101207.84;;;4.96;46.96
80620;BME280;69979;53.682;-2.690;2024-01-06T07:23:58;101208.40;;;5.73;46.95
80620;BME280;69979;53.682;-2.690;2024-01-06T07:26:23;101207.82;;;6.09;46.95
80620;BME280;69979;53.682;-2.690;2024-01-06T07:28:49;101211.95;;;5.65;47.10
80620;BME280;69979;53.682;-2.690;2024-01-06T07:31:15;101217.24;;;5.95;46.65
80620;BME280;69979;53.682;-2.690;2024-01-06T07:33:41;101221.83;;;5.96;46.11
80620;BME280;69979;53.682;-2.690;2024-01-06T07:36:06;101224.15;;;6.34;46.56
80620;BME280;69979;53.682;-2.690;2024-01-06T07:38:32;101226.53;;;6.52;45.91
80620;BME280;69979;53.682;-2.690;2024-01-06T07:40:57;101225.78;;;6.07;46.13
80620;BME280;69979;53.682;-2.690;2024-01-06T07:43:23;101229.23;;;5.74;46.81
80620;BME280;69979;53.682;-2.690;2024-01-06T07:45:49;101233.78;;;5.96;47.39
80620;BME280;69979;53.682;-2.690;2024-01-06T07:48:15;101234.66;;;5.94;47.41
80620;BME280;69979;53.682;-2.690;2024-01-06T07:50:40;101239.11;;;5.95;47.16
80620;BME280;69979;53.682;-2.690;2024-01-06T07:53:06;101244.02;;;6.07;46.82
80620;BME280;69979;53.682;-2.690;2024-01-06T07:55:32;101245.41;;;6.02;46.68
80620;BME280;69979;53.682;-2.690;2024-01-06T07:57:58;101247.72;;;5.92;46.87
80620;BME280;69979;53.682;-2.690;2024-01-06T08:00:23;101257.60;;;6.45;46.85
80620;BME280;69979;53.682;-2.690;2024-01-06T08:02:49;101258.47;;;6.06;46.93
80620;BME280;69979;53.682;-2.690;2024-01-06T08:05:15;101264.31;;;5.91;46.57
80620;BME280;69979;53.682;-2.690;2024-01-06T08:07:40;101270.82;;;6.20;46.63
80620;BME280;69979;53.682;-2.690;2024-01-06T08:10:07;101276.39;;;6.06;46.56
80620;BME280;69979;53.682;-2.690;2024-01-06T08:12:32;101282.70;;;6.11;46.50
80620;BME280;69979;53.682;-2.690;2024-01-06T08:14:57;101285.96;;;6.04;46.57
80620;BME280;69979;53.682;-2.690;2024-01-06T08:17:23;101291.03;;;6.04;46.79
80620;BME280;69979;53.682;-2.690;2024-01-06T08:19:49;101295.54;;;6.29;46.44
80620;BME280;69979;53.682;-2.690;2024-01-06T08:22:14;101297.29;;;6.23;46.54
80620;BME280;69979;53.682;-2.690;2024-01-06T08:24:40;101298.03;;;6.67;45.81
80620;BME280;69979;53.682;-2.690;2024-01-06T08:27:06;101301.46;;;6.29;45.77
80620;BME280;69979;53.682;-2.690;2024-01-06T08:29:32;101305.93;;;6.39;45.49
80620;BME280;69979;53.682;-2.690;2024-01-06T08:31:57;101310.39;;;6.64;45.16
80620;BME280;69979;53.682;-2.690;2024-01-06T08:34:23;101314.48;;;6.31;45.60
80620;BME280;69979;53.682;-2.690;2024-01-06T08:36:49;101315.60;;;6.38;45.62
80620;BME280;69979;53.682;-2.690;2024-01-06T08:39:15;101319.81;;;5.91;45.95
80620;BME280;69979;53.682;-2.690;2024-01-06T08:41:40;101325.27;;;6.10;45.73
80620;BME280;69979;53.682;-2.690;2024-01-06T08:44:06;101332.73;;;6.05;46.08
80620;BME280;69979;53.682;-2.690;2024-01-06T08:46:32;101334.20;;;6.06;46.10
80620;BME280;69979;53.682;-2.690;2024-01-06T08:48:58;101341.82;;;5.88;46.49
80620;BME280;69979;53.682;-2.690;2024-01-06T08:51:23;101342.07;;;6.17;46.46
80620;BME280;69979;53.682;-2.690;2024-01-06T08:53:49;101349.08;;;6.02;46.35
80620;BME280;69979;53.682;-2.690;2024-01-06T08:56:15;101349.64;;;6.10;46.28
80620;BME280;69979;53.682;-2.690;2024-01-06T08:58:40;101352.96;;;6.47;45.04
80620;BME280;69979;53.682;-2.690;2024-01-06T09:01:06;101355.97;;;6.57;44.25
80620;BME280;69979;53.682;-2.690;2024-01-06T09:03:32;101356.76;;;6.28;44.80
80620;BME280;69979;53.682;-2.690;2024-01-06T09:05:58;101358.75;;;6.55;45.42
80620;BME280;69979;53.682;-2.690;2024-01-06T09:08:23;101358.00;;;6.03;46.20
80620;BME280;69979;53.682;-2.690;2024-01-06T09:10:49;101362.10;;;6.10;46.50
80620;BME280;69979;53.682;-2.690;2024-01-06T09:13:15;101364.82;;;6.07;46.76
80620;BME280;69979;53.682;-2.690;2024-01-06T09:15:40;101368.12;;;6.48;46.38
80620;BME280;69979;53.682;-2.690;2024-01-06T09:18:06;101375.51;;;6.49;45.88
80620;BME280;69979;53.682;-2.690;2024-01-06T09:20:32;101382.39;;;6.69;44.92
80620;BME280;69979;53.682;-2.690;2024-01-06T09:22:57;101388.39;;;6.00;45.45
80620;BME280;69979;53.682;-2.690;2024-01-06T09:25:23;101392.38;;;5.94;46.52
80620;BME280;69979;53.682;-2.690;2024-01-06T09:27:49;101398.40;;;6.16;46.60
80620;BME280;69979;53.682;-2.690;2024-01-06T09:30:15;101400.82;;;6.58;46.52
80620;BME280;69979;53.682;-2.690;2024-01-06T09:32:40;101408.30;;;6.73;46.23
80620;BME280;69979;53.682;-2.690;2024-01-06T09:35:06;101414.31;;;6.90;45.62
80620;BME280;69979;53.682;-2.690;2024-01-06T09:37:32;101419.26;;;7.15;45.19
80620;BME280;69979;53.682;-2.690;2024-01-06T09:39:57;101420.36;;;7.13;45.35
80620;BME280;69979;53.682;-2.690;2024-01-06T09:42:23;101421.32;;;7.46;45.58
80620;BME280;69979;53.682;-2.690;2024-01-06T09:44:48;101424.28;;;7.33;44.06
80620;BME280;69979;53.682;-2.690;2024-01-06T09:47:16;101427.36;;;7.37;44.81
80620;BME280;69979;53.682;-2.690;2024-01-06T09:49:42;101431.63;;;6.90;45.82
80620;BME280;69979;53.682;-2.690;2024-01-06T09:52:12;101436.29;;;7.59;45.30
80620;BME280;69979;53.682;-2.690;2024-01-06T09:54:34;101436.31;;;6.39;45.70
80620;BME280;69979;53.682;-2.690;2024-01-06T09:56:56;101433.55;;;7.02;46.08
80620;BME280;69979;53.682;-2.690;2024-01-06T09:59:22;101434.72;;;6.54;47.30
80620;BME280;69979;53.682;-2.690;2024-01-06T10:01:49;101438.07;;;6.80;47.15
80620;BME280;69979;53.682;-2.690;2024-01-06T10:04:14;101442.93;;;7.14;47.37
80620;BME280;69979;53.682;-2.690;2024-01-06T10:06:40;101446.40;;;7.63;45.46
80620;BME280;69979;53.682;-2.690;2024-01-06T10:09:05;101445.17;;;7.68;46.40
80620;BME280;69979;53.682;-2.690;2024-01-06T10:11:31;101445.39;;;7.79;45.88
80620;BME280;69979;53.682;-2.690;2024-01-06T10:13:56;101448.11;;;7.53;46.82
80620;BME280;69979;53.682;-2.690;2024-01-06T10:16:22;101449.62;;;7.90;46.59
80620;BME280;69979;53.682;-2.690;2024-01-06T10:18:48;101452.93;;;7.51;46.42
80620;BME280;69979;53.682;-2.690;2024-01-06T10:21:13;101453.29;;;8.14;45.33
80620;BME280;69979;53.682;-2.690;2024-01-06T10:23:39;101450.44;;;8.34;43.97
80620;BME280;69979;53.682;-2.690;2024-01-06T10:26:05;101457.89;;;8.18;44.99
80620;BME280;69979;53.682;-2.690;2024-01-06T10:28:30;101457.24;;;8.40;44.97
80620;BME280;69979;53.682;-2.690;2024-01-06T10:30:56;101457.31;;;8.61;44.95
80620;BME280;69979;53.682;-2.690;2024-01-06T10:33:22;101461.41;;;7.73;47.36
80620;BME280;69979;53.682;-2.690;2024-01-06T10:35:47;101461.59;;;5.91;51.43
80620;BME280;69979;53.682;-2.690;2024-01-06T10:38:14;101467.66;;;6.74;50.48
80620;BME280;69979;53.682;-2.690;2024-01-06T10:40:38;101470.49;;;6.81;51.07
80620;BME280;69979;53.682;-2.690;2024-01-06T10:43:04;101475.06;;;7.12;49.85
80620;BME280;69979;53.682;-2.690;2024-01-06T10:45:29;101476.90;;;6.90;50.82
80620;BME280;69979;53.682;-2.690;2024-01-06T10:47:55;101477.38;;;7.17;50.80
80620;BME280;69979;53.682;-2.690;2024-01-06T10:50:22;101475.50;;;7.68;50.18
80620;BME280;69979;53.682;-2.690;2024-01-06T10:52:48;101478.88;;;7.74;50.48
80620;BME280;69979;53.682;-2.690;2024-01-06T10:55:13;101478.34;;;7.98;49.66
80620;BME280;69979;53.682;-2.690;2024-01-06T10:57:38;101482.07;;;8.28;48.50
80620;BME280;69979;53.682;-2.690;2024-01-06T11:00:04;101480.74;;;8.34;48.43
80620;BME280;69979;53.682;-2.690;2024-01-06T11:02:29;101482.60;;;8.46;48.16
80620;BME280;69979;53.682;-2.690;2024-01-06T11:04:54;101481.46;;;8.87;46.99
80620;BME280;69979;53.682;-2.690;2024-01-06T11:07:21;101482.99;;;8.69;47.60
80620;BME280;69979;53.682;-2.690;2024-01-06T11:09:50;101483.31;;;8.74;47.60
80620;BME280;69979;53.682;-2.690;2024-01-06T11:12:11;101485.59;;;8.37;48.42
80620;BME280;69979;53.682;-2.690;2024-01-06T11:14:37;101491.36;;;8.81;47.86
80620;BME280;69979;53.682;-2.690;2024-01-06T11:17:02;101496.16;;;7.65;49.53
80620;BME280;69979;53.682;-2.690;2024-01-06T11:19:42;101498.19;;;7.79;50.20
80620;BME280;69979;53.682;-2.690;2024-01-06T11:21:53;101503.12;;;7.99;49.63
80620;BME280;69979;53.682;-2.690;2024-01-06T11:24:19;101500.40;;;8.31;50.52
80620;BME280;69979;53.682;-2.690;2024-01-06T11:26:45;101499.11;;;8.66;49.53
80620;BME280;69979;53.682;-2.690;2024-01-06T11:29:10;101500.65;;;8.78;48.91
80620;BME280;69979;53.682;-2.690;2024-01-06T11:31:36;101503.17;;;7.75;49.51
80620;BME280;69979;53.682;-2.690;2024-01-06T11:34:12;101503.79;;;7.16;51.98
80620;BME280;69979;53.682;-2.690;2024-01-06T11:36:26;101505.55;;;6.78;53.38
80620;BME280;69979;53.682;-2.690;2024-01-06T11:38:52;101505.24;;;6.66;53.54
80620;BME280;69979;53.682;-2.690;2024-01-06T11:43:43;101514.09;;;4.59;59.35
80620;BME280;69979;53.682;-2.690;2024-01-06T11:46:09;101513.56;;;6.85;56.60
80620;BME280;69979;53.682;-2.690;2024-01-06T11:48:34;101515.24;;;7.68;54.44
80620;BME280;69979;53.682;-2.690;2024-01-06T11:50:59;101518.33;;;7.81;53.56
80620;BME280;69979;53.682;-2.690;2024-01-06T11:53:26;101518.69;;;6.19;55.71
80620;BME280;69979;53.682;-2.690;2024-01-06T11:55:50;101521.47;;;7.23;55.05
80620;BME280;69979;53.682;-2.690;2024-01-06T11:58:17;101520.67;;;7.78;53.83
80620;BME280;69979;53.682;-2.690;2024-01-06T12:00:41;101522.39;;;7.91;54.11
80620;BME280;69979;53.682;-2.690;2024-01-06T12:03:06;101525.18;;;8.08;51.97
80620;BME280;69979;53.682;-2.690;2024-01-06T12:05:32;101521.85;;;8.32;50.79
80620;BME280;69979;53.682;-2.690;2024-01-06T12:07:58;101522.51;;;8.43;50.81
80620;BME280;69979;53.682;-2.690;2024-01-06T12:10:24;101519.64;;;8.50;50.91
80620;BME280;69979;53.682;-2.690;2024-01-06T12:12:56;101522.35;;;8.71;50.86
80620;BME280;69979;53.682;-2.690;2024-01-06T12:15:14;101512.60;;;7.95;51.93
80620;BME280;69979;53.682;-2.690;2024-01-06T12:17:39;101512.98;;;5.88;57.43
80620;BME280;69979;53.682;-2.690;2024-01-06T12:20:05;101513.70;;;7.63;55.09
80620;BME280;69979;53.682;-2.690;2024-01-06T12:22:30;101515.71;;;7.94;54.04
80620;BME280;69979;53.682;-2.690;2024-01-06T12:24:55;101516.76;;;7.86;53.49
80620;BME280;69979;53.682;-2.690;2024-01-06T12:27:20;101515.12;;;8.27;52.89
80620;BME280;69979;53.682;-2.690;2024-01-06T12:29:46;101510.26;;;8.34;51.12
80620;BME280;69979;53.682;-2.690;2024-01-06T12:32:12;101513.78;;;8.03;51.08
80620;BME280;69979;53.682;-2.690;2024-01-06T12:34:37;101511.45;;;6.30;56.74
80620;BME280;69979;53.682;-2.690;2024-01-06T12:37:03;101513.80;;;7.74;53.95
80620;BME280;69979;53.682;-2.690;2024-01-06T12:39:29;101513.21;;;8.32;52.62
80620;BME280;69979;53.682;-2.690;2024-01-06T12:41:54;101511.78;;;8.71;51.65
80620;BME280;69979;53.682;-2.690;2024-01-06T12:44:18;101513.83;;;9.06;50.73